Time;durP1;ratioP1;P1;durP2;ratioP2;P2;SDS_P1;SDS_P2;PMS_P1;PMS_P2;Temp;Humidity;BMP_temperature;BMP_pressure;BME280_temperature;BME280_humidity;BME280_pressure;Samples;Min_cycle;Max_cycle;Signal;HPM_P1;HPM_P2
2023/12/15 00:02:37;;;;;;;;;;;;;;;20.15;36.15;96395.25;10459075;28;2850;-47
2023/12/15 00:07:37;;;;;;;;;;;;;;;20.13;36.19;96397.34;10459446;28;2850;-51
2023/12/15 00:12:38;;;;;;;;;;;;;;;20.09;36.25;96401.53;10462001;28;2888;-49
2023/12/15 00:17:38;;;;;;;;;;;;;;;20.08;36.14;96415.75;10453287;28;3012;-52
2023/12/15 00:22:38;;;;;;;;;;;;;;;20.08;36.18;96422.84;10454473;28;2865;-51
2023/12/15 00:27:39;;;;;;;;;;;;;;;20.03;36.38;96423.59;10459453;28;2917;-50
2023/12/15 00:32:39;;;;;;;;;;;;;;;20.02;36.27;96427.31;10459720;28;2841;-51
2023/12/15 00:37:40;;;;;;;;;;;;;;;20.01;36.09;96440.72;10460613;28;2872;-54
2023/12/15 00:42:40;;;;;;;;;;;;;;;19.97;36.30;96444.91;10464005;28;4877;-52
2023/12/15 00:47:40;;;;;;;;;;;;;;;19.95;36.38;96449.59;10455777;28;2795;-51
2023/12/15 00:52:40;;;;;;;;;;;;;;;19.93;36.39;96457.75;10458847;28;2830;-51
2023/12/15 00:57:41;;;;;;;;;;;;;;;19.91;36.41;96461.66;10460719;28;2926;-50
2023/12/15 01:02:41;;;;;;;;;;;;;;;19.89;36.42;96474.28;10457901;28;2798;-50
2023/12/15 01:07:41;;;;;;;;;;;;;;;19.89;36.30;96484.81;10454878;28;2871;-50
2023/12/15 01:12:41;;;;;;;;;;;;;;;19.85;36.30;96500.31;10445565;28;2851;-50
2023/12/15 01:17:42;;;;;;;;;;;;;;;19.84;36.32;96500.56;10459913;28;2839;-51
2023/12/15 01:22:42;;;;;;;;;;;;;;;19.82;36.31;96507.94;10457258;28;2878;-51
2023/12/15 01:27:42;;;;;;;;;;;;;;;19.80;36.34;96515.28;10453313;28;2790;-51
2023/12/15 01:32:43;;;;;;;;;;;;;;;19.77;36.33;96518.38;10461190;28;2798;-49
2023/12/15 01:37:43;;;;;;;;;;;;;;;19.76;36.42;96538.66;10458341;28;2903;-51
2023/12/15 01:42:45;;;;;;;;;;;;;;;19.74;36.45;96535.47;10458756;28;4866;-51
2023/12/15 01:47:45;;;;;;;;;;;;;;;19.73;36.57;96554.94;10453592;28;2797;-49
2023/12/15 01:52:46;;;;;;;;;;;;;;;19.72;36.61;96557.81;10453585;28;3115;-51
2023/12/15 01:57:46;;;;;;;;;;;;;;;19.69;36.63;96569.63;10454494;28;3176;-48
2023/12/15 02:02:46;;;;;;;;;;;;;;;19.68;36.59;96562.00;10458244;28;3298;-50
2023/12/15 02:07:47;;;;;;;;;;;;;;;19.66;36.25;96580.63;10451825;28;2850;-51
2023/12/15 02:12:47;;;;;;;;;;;;;;;19.65;36.61;96583.50;10453976;28;2906;-48
2023/12/15 02:17:47;;;;;;;;;;;;;;;19.62;36.48;96589.28;10457984;28;3130;-53
2023/12/15 02:22:48;;;;;;;;;;;;;;;19.61;36.50;96598.19;10462725;28;2802;-52
2023/12/15 02:27:48;;;;;;;;;;;;;;;19.61;36.44;96600.81;10464472;28;2833;-46
2023/12/15 02:32:48;;;;;;;;;;;;;;;19.58;36.39;96602.09;10462531;28;2808;-51
2023/12/15 02:37:48;;;;;;;;;;;;;;;19.57;36.47;96607.63;10461738;28;2808;-49
2023/12/15 02:42:49;;;;;;;;;;;;;;;19.55;36.33;96623.66;10461629;28;4921;-50
2023/12/15 02:47:49;;;;;;;;;;;;;;;19.53;36.62;96624.94;10459789;28;2824;-50
2023/12/15 02:52:49;;;;;;;;;;;;;;;19.52;36.64;96639.09;10458699;28;2854;-52
2023/12/15 02:57:49;;;;;;;;;;;;;;;19.51;36.54;96656.75;10460459;28;2916;-50
2023/12/15 03:02:50;;;;;;;;;;;;;;;19.49;36.38;96667.47;10464911;28;2827;-48
2023/12/15 03:07:50;;;;;;;;;;;;;;;19.47;36.46;96671.41;10460006;28;2967;-52
2023/12/15 03:12:50;;;;;;;;;;;;;;;19.45;36.59;96682.16;10455531;28;2834;-48
2023/12/15 03:17:50;;;;;;;;;;;;;;;19.44;36.51;96688.47;10463225;28;3244;-49
2023/12/15 03:22:51;;;;;;;;;;;;;;;19.43;36.65;96693.97;10458253;28;2875;-53
2023/12/15 03:27:51;;;;;;;;;;;;;;;19.42;36.53;96692.38;10460835;28;2907;-51
2023/12/15 03:32:52;;;;;;;;;;;;;;;19.40;36.53;96702.34;10463961;28;2843;-49
2023/12/15 03:37:52;;;;;;;;;;;;;;;19.39;36.47;96719.94;10457833;28;2981;-50
2023/12/15 03:42:52;;;;;;;;;;;;;;;19.38;36.62;96726.25;10455473;28;5140;-50
2023/12/15 03:47:52;;;;;;;;;;;;;;;19.36;36.75;96730.97;10456354;28;2788;-53
2023/12/15 03:52:53;;;;;;;;;;;;;;;19.33;36.56;96749.84;10450074;28;2989;-49
2023/12/15 03:57:53;;;;;;;;;;;;;;;19.34;36.37;96761.97;10452042;28;3211;-53
2023/12/15 04:02:53;;;;;;;;;;;;;;;19.34;36.73;96763.78;10459309;28;2862;-52
2023/12/15 04:07:54;;;;;;;;;;;;;;;19.32;36.70;96755.31;10457784;28;2788;-50
2023/12/15 04:12:54;;;;;;;;;;;;;;;19.30;36.57;96775.78;10452682;28;2810;-52
2023/12/15 04:17:54;;;;;;;;;;;;;;;19.28;36.62;96789.19;10457247;28;2975;-50
2023/12/15 04:22:54;;;;;;;;;;;;;;;19.29;36.60;96800.47;10460716;28;2849;-52
2023/12/15 04:27:55;;;;;;;;;;;;;;;19.25;36.57;96797.53;10459772;28;2936;-50
2023/12/15 04:32:57;;;;;;;;;;;;;;;19.25;36.61;96805.41;10487632;28;2970;-49
2023/12/15 04:37:57;;;;;;;;;;;;;;;19.24;36.42;96809.09;10455258;28;2889;-51
2023/12/15 04:42:58;;;;;;;;;;;;;;;19.23;36.58;96814.56;10455253;28;4830;-46
2023/12/15 04:47:58;;;;;;;;;;;;;;;19.22;36.55;96824.31;10452050;28;2881;-50
2023/12/15 04:52:58;;;;;;;;;;;;;;;19.21;36.50;96825.31;10456762;28;2850;-52
2023/12/15 04:57:59;;;;;;;;;;;;;;;19.20;36.69;96830.84;10455476;28;2796;-49
2023/12/15 05:03:00;;;;;;;;;;;;;;;19.19;36.52;96831.84;10455386;28;2806;-52
2023/12/15 05:08:00;;;;;;;;;;;;;;;19.19;36.56;96842.38;10458819;28;2887;-50
2023/12/15 05:13:00;;;;;;;;;;;;;;;19.23;36.83;96846.09;10494000;28;2881;-49
2023/12/15 05:18:00;;;;;;;;;;;;;;;19.32;36.52;96858.63;10455357;28;2936;-49
2023/12/15 05:23:01;;;;;;;;;;;;;;;19.37;36.55;96860.59;10456824;28;2795;-47
2023/12/15 05:28:01;;;;;;;;;;;;;;;19.43;36.52;96870.16;10450886;28;2902;-48
2023/12/15 05:33:01;;;;;;;;;;;;;;;19.48;36.38;96878.09;10453036;28;2933;-49
2023/12/15 05:38:04;;;;;;;;;;;;;;;19.54;36.52;96887.66;10485437;28;2944;-49
2023/12/15 05:43:05;;;;;;;;;;;;;;;19.59;36.53;96903.53;10456927;28;4842;-50
2023/12/15 05:48:05;;;;;;;;;;;;;;;19.62;36.42;96915.41;10451171;28;2949;-49
2023/12/15 05:53:05;;;;;;;;;;;;;;;19.65;36.26;96922.81;10457206;28;2812;-49
2023/12/15 05:58:05;;;;;;;;;;;;;;;19.70;36.18;96941.31;10458383;28;2895;-51
2023/12/15 06:03:06;;;;;;;;;;;;;;;19.73;36.40;96948.72;10460482;28;2831;-50
2023/12/15 06:08:06;;;;;;;;;;;;;;;19.75;36.02;96957.97;10459177;28;3144;-51
2023/12/15 06:13:07;;;;;;;;;;;;;;;19.77;36.48;96970.88;10458637;28;2878;-49
2023/12/15 06:18:07;;;;;;;;;;;;;;;19.81;36.31;96972.00;10457151;28;2865;-48
2023/12/15 06:23:07;;;;;;;;;;;;;;;19.85;36.25;96981.00;10463566;28;2805;-50
2023/12/15 06:28:10;;;;;;;;;;;;;;;19.88;36.02;96988.44;10467212;28;2865;-50
2023/12/15 06:33:11;;;;;;;;;;;;;;;19.89;35.94;96995.28;10461336;28;3202;-51
2023/12/15 06:38:11;;;;;;;;;;;;;;;19.92;36.08;97007.97;10488408;28;2894;-52
2023/12/15 06:43:12;;;;;;;;;;;;;;;19.92;35.92;97011.41;10462489;28;4652;-47
2023/12/15 06:48:12;;;;;;;;;;;;;;;19.95;35.77;97031.97;10466412;28;2858;-51
2023/12/15 06:53:12;;;;;;;;;;;;;;;19.98;35.93;97047.31;10468846;28;2786;-47
2023/12/15 06:58:15;;;;;;;;;;;;;;;20.02;35.68;97052.88;10459084;28;2854;-52
2023/12/15 07:03:15;;;;;;;;;;;;;;;20.01;35.65;97059.97;10463788;28;2949;-50
2023/12/15 07:08:15;;;;;;;;;;;;;;;20.04;35.94;97071.88;10463191;28;2839;-46
2023/12/15 07:13:16;;;;;;;;;;;;;;;20.06;35.63;97085.59;10461628;28;2922;-51
2023/12/15 07:18:16;;;;;;;;;;;;;;;20.07;35.70;97095.88;10463920;28;2813;-49
2023/12/15 07:23:16;;;;;;;;;;;;;;;20.12;35.60;97108.31;10459121;28;2809;-49
2023/12/15 07:28:16;;;;;;;;;;;;;;;20.13;35.73;97118.59;10459517;28;3176;-48
2023/12/15 07:33:17;;;;;;;;;;;;;;;20.14;35.71;97124.69;10458500;28;2872;-50
2023/12/15 07:38:17;;;;;;;;;;;;;;;20.16;35.75;97128.69;10463745;28;2903;-51
2023/12/15 07:43:17;;;;;;;;;;;;;;;20.16;35.91;97138.41;10453457;28;4940;-51
2023/12/15 07:48:18;;;;;;;;;;;;;;;20.18;35.71;97154.75;10459157;28;2850;-51
2023/12/15 07:53:18;;;;;;;;;;;;;;;20.18;35.42;97158.19;10461113;28;2980;-49
2023/12/15 07:58:19;;;;;;;;;;;;;;;20.19;36.16;97175.63;10456347;28;2822;-53
2023/12/15 08:03:20;;;;;;;;;;;;;;;20.31;35.74;97172.94;10462956;28;3057;-49
2023/12/15 08:08:20;;;;;;;;;;;;;;;20.47;35.29;97174.78;10468595;28;2854;-52
2023/12/15 08:13:20;;;;;;;;;;;;;;;20.65;35.34;97179.81;10456105;28;2796;-53
2023/12/15 08:18:21;;;;;;;;;;;;;;;20.79;34.67;97185.56;10461046;28;2830;-51
2023/12/15 08:23:21;;;;;;;;;;;;;;;21.00;34.32;97190.91;10459309;28;2921;-50
2023/12/15 08:28:21;;;;;;;;;;;;;;;21.11;34.55;97193.72;10458976;28;2826;-52
2023/12/15 08:33:21;;;;;;;;;;;;;;;21.19;34.03;97201.22;10460240;28;2843;-50
2023/12/15 08:38:24;;;;;;;;;;;;;;;21.28;33.62;97194.50;10462583;28;2862;-52
2023/12/15 08:43:25;;;;;;;;;;;;;;;21.35;33.49;97200.41;10458942;28;2883;-51
2023/12/15 08:48:25;;;;;;;;;;;;;;;21.41;33.43;97207.34;10461045;28;2805;-52
2023/12/15 08:53:26;;;;;;;;;;;;;;;21.44;33.45;97206.84;10481110;28;2880;-54
2023/12/15 08:58:28;;;;;;;;;;;;;;;21.49;33.43;97212.19;10455452;28;2763;-49
2023/12/15 09:03:28;;;;;;;;;;;;;;;21.51;33.26;97221.47;10452791;28;2933;-53
2023/12/15 09:08:29;;;;;;;;;;;;;;;21.56;33.30;97228.63;10453937;28;2928;-47
2023/12/15 09:13:29;;;;;;;;;;;;;;;21.60;33.16;97222.63;10444159;28;2840;-51
2023/12/15 09:18:29;;;;;;;;;;;;;;;21.61;33.17;97229.50;10455038;28;2852;-53
2023/12/15 09:23:29;;;;;;;;;;;;;;;21.63;33.09;97239.81;10441007;28;2841;-54
2023/12/15 09:28:30;;;;;;;;;;;;;;;21.65;33.21;97237.72;10453938;28;2827;-52
2023/12/15 09:33:30;;;;;;;;;;;;;;;21.67;33.07;97247.00;10450770;28;2872;-51
2023/12/15 09:38:30;;;;;;;;;;;;;;;21.75;33.08;97251.06;10469352;28;2756;-52
2023/12/15 09:43:31;;;;;;;;;;;;;;;21.78;33.23;97250.56;10458409;28;4747;-51
2023/12/15 09:48:31;;;;;;;;;;;;;;;21.82;33.17;97257.75;10450818;28;2899;-53
2023/12/15 09:53:33;;;;;;;;;;;;;;;21.80;32.81;97259.81;10446763;28;3157;-51
2023/12/15 09:58:33;;;;;;;;;;;;;;;21.83;32.89;97266.50;10449748;28;2918;-50
2023/12/15 10:03:33;;;;;;;;;;;;;;;21.79;33.11;97281.19;10451596;28;2803;-51
2023/12/15 10:08:40;;;;;;;;;;;;;;;21.80;32.78;97277.53;10453352;28;2842;-49
2023/12/15 10:13:41;;;;;;;;;;;;;;;21.84;32.74;97276.78;10453703;28;2874;-53
2023/12/15 10:18:41;;;;;;;;;;;;;;;21.83;32.59;97269.13;10459200;28;2827;-50
2023/12/15 10:23:41;;;;;;;;;;;;;;;21.81;32.93;97263.25;10477054;28;2826;-50
2023/12/15 10:28:42;;;;;;;;;;;;;;;21.84;33.02;97265.47;10453006;28;3188;-51
2023/12/15 10:33:43;;;;;;;;;;;;;;;21.94;32.62;97275.34;10457323;28;2899;-48
2023/12/15 10:38:43;;;;;;;;;;;;;;;21.93;33.12;97276.41;10461448;28;2813;-49
2023/12/15 10:43:43;;;;;;;;;;;;;;;21.98;32.79;97274.59;10456354;28;4904;-53
2023/12/15 10:48:43;;;;;;;;;;;;;;;21.98;32.52;97274.59;10464589;28;2922;-53
2023/12/15 10:53:44;;;;;;;;;;;;;;;21.99;32.50;97292.03;10458743;28;2990;-50
2023/12/15 10:58:44;;;;;;;;;;;;;;;21.99;32.47;97293.91;10463142;28;2807;-51
2023/12/15 11:03:44;;;;;;;;;;;;;;;22.02;32.30;97298.66;10454732;28;2774;-49
2023/12/15 11:08:45;;;;;;;;;;;;;;;22.02;32.24;97296.03;10465199;28;2784;-50
2023/12/15 11:13:59;;;;;;;;;;;;;;;22.04;32.53;97297.38;10453971;28;2785;-48
2023/12/15 11:18:59;;;;;;;;;;;;;;;22.06;32.33;97300.59;10459995;28;2808;-51
2023/12/15 11:24:02;;;;;;;;;;;;;;;22.03;32.35;97297.66;10457612;28;2807;-51
2023/12/15 11:29:03;;;;;;;;;;;;;;;22.03;32.51;97298.41;10462302;28;2846;-46
2023/12/15 11:34:03;;;;;;;;;;;;;;;22.10;32.73;97293.75;10459765;28;2816;-51
2023/12/15 11:39:04;;;;;;;;;;;;;;;22.13;32.46;97295.94;10467343;28;2877;-51
2023/12/15 11:44:04;;;;;;;;;;;;;;;22.13;32.61;97293.28;10460966;28;4988;-54
2023/12/15 11:49:04;;;;;;;;;;;;;;;22.14;32.55;97294.88;10471246;28;3522;-50
2023/12/15 11:54:04;;;;;;;;;;;;;;;22.18;32.43;97295.97;10456148;28;3050;-52
2023/12/15 11:59:05;;;;;;;;;;;;;;;22.18;32.47;97303.91;10447904;28;2798;-50
2023/12/15 12:04:05;;;;;;;;;;;;;;;22.20;32.62;97299.16;10468005;28;2848;-52
2023/12/15 12:09:09;;;;;;;;;;;;;;;22.22;32.61;97310.28;10459633;28;2778;-50
2023/12/15 12:14:10;;;;;;;;;;;;;;;22.21;32.41;97313.19;10461332;28;3057;-50
2023/12/15 12:19:10;;;;;;;;;;;;;;;22.25;32.49;97311.63;10453283;28;2890;-51
2023/12/15 12:24:13;;;;;;;;;;;;;;;22.29;32.49;97323.31;10465002;28;2826;-51
2023/12/15 12:29:14;;;;;;;;;;;;;;;22.28;32.27;97322.50;10466862;28;2831;-50
2023/12/15 12:34:14;;;;;;;;;;;;;;;22.23;32.61;97335.66;10472952;28;2821;-51
2023/12/15 12:39:14;;;;;;;;;;;;;;;22.28;32.71;97334.91;10465155;28;2772;-53
2023/12/15 12:44:15;;;;;;;;;;;;;;;22.33;32.21;97346.34;10457767;28;4925;-51
2023/12/15 12:49:15;;;;;;;;;;;;;;;22.32;32.18;97352.66;10458752;28;2910;-50
2023/12/15 12:54:15;;;;;;;;;;;;;;;22.33;32.49;97351.63;10466373;28;2807;-51
2023/12/15 12:59:15;;;;;;;;;;;;;;;22.32;32.25;97347.38;10454704;28;3240;-54
2023/12/15 13:04:16;;;;;;;;;;;;;;;22.34;32.13;97333.94;10463961;28;2941;-50
2023/12/15 13:09:18;;;;;;;;;;;;;;;22.35;31.88;97341.63;10483979;27;2844;-55
2023/12/15 13:14:18;;;;;;;;;;;;;;;22.33;31.98;97341.06;10458368;28;2795;-52
2023/12/15 13:19:20;;;;;;;;;;;;;;;22.25;32.00;97338.84;10459444;28;2822;-53
2023/12/15 13:24:20;;;;;;;;;;;;;;;22.24;31.95;97344.38;10454623;28;2797;-49
2023/12/15 13:29:23;;;;;;;;;;;;;;;22.21;31.51;97332.47;10464642;28;2887;-49
2023/12/15 13:34:24;;;;;;;;;;;;;;;22.18;31.71;97337.44;10453738;28;2978;-54
2023/12/15 13:39:25;;;;;;;;;;;;;;;22.08;31.74;97343.38;10456933;28;2900;-53
2023/12/15 13:44:25;;;;;;;;;;;;;;;22.06;32.09;97350.75;10457003;28;4632;-52
2023/12/15 13:49:27;;;;;;;;;;;;;;;21.94;32.70;97357.19;10454777;28;3010;-50
2023/12/15 13:54:27;;;;;;;;;;;;;;;21.92;32.48;97351.34;10455485;28;2858;-51
2023/12/15 13:59:27;;;;;;;;;;;;;;;21.91;32.47;97353.19;10471524;28;2890;-53
2023/12/15 14:04:28;;;;;;;;;;;;;;;21.77;33.08;97358.00;10457475;28;2846;-50
2023/12/15 14:09:28;;;;;;;;;;;;;;;21.67;32.92;97362.31;10446983;28;2830;-50
2023/12/15 14:14:28;;;;;;;;;;;;;;;21.60;33.20;97369.59;10461773;28;2803;-51
2023/12/15 14:19:29;;;;;;;;;;;;;;;21.52;32.92;97383.19;10478257;28;2829;-48
2023/12/15 14:24:29;;;;;;;;;;;;;;;21.42;32.90;97375.13;10455286;28;2795;-51
2023/12/15 14:29:30;;;;;;;;;;;;;;;21.31;32.68;97373.38;10470794;28;2838;-48
2023/12/15 14:34:30;;;;;;;;;;;;;;;21.21;32.81;97370.53;10459789;28;2916;-50
2023/12/15 14:39:30;;;;;;;;;;;;;;;21.11;33.36;97362.47;10469596;28;2863;-50
2023/12/15 14:44:30;;;;;;;;;;;;;;;21.04;32.85;97367.91;10478347;28;4945;-49
2023/12/15 14:49:31;;;;;;;;;;;;;;;20.98;33.13;97368.81;10461486;28;2864;-54
2023/12/15 14:54:33;;;;;;;;;;;;;;;20.93;33.15;97382.72;10462967;28;2911;-53
2023/12/15 14:59:33;;;;;;;;;;;;;;;20.92;33.34;97386.38;10464719;28;2828;-52
2023/12/15 15:04:34;;;;;;;;;;;;;;;20.89;34.59;97400.03;10456445;28;2911;-51
2023/12/15 15:09:34;;;;;;;;;;;;;;;20.90;34.55;97414.81;10459982;28;2843;-50
2023/12/15 15:14:35;;;;;;;;;;;;;;;20.91;33.86;97411.16;10464252;28;2896;-48
2023/12/15 15:19:35;;;;;;;;;;;;;;;20.90;34.50;97409.53;10457085;28;2823;-52
2023/12/15 15:24:36;;;;;;;;;;;;;;;20.93;34.57;97424.09;10456058;28;2840;-52
2023/12/15 15:29:36;;;;;;;;;;;;;;;20.91;34.97;97423.53;10461858;28;2974;-54
2023/12/15 15:34:36;;;;;;;;;;;;;;;20.90;34.92;97425.34;10461251;28;2783;-54
2023/12/15 15:39:37;;;;;;;;;;;;;;;20.91;35.27;97428.78;10451201;28;2897;-50
2023/12/15 15:44:37;;;;;;;;;;;;;;;20.91;34.95;97442.78;10452896;28;3526;-52
2023/12/15 15:49:37;;;;;;;;;;;;;;;20.93;34.82;97453.09;10453567;28;2817;-51
2023/12/15 15:54:42;;;;;;;;;;;;;;;20.92;34.55;97460.19;10462470;28;2822;-50
2023/12/15 15:59:42;;;;;;;;;;;;;;;20.92;34.92;97456.75;10453096;28;2827;-53
2023/12/15 16:04:42;;;;;;;;;;;;;;;20.91;34.55;97466.50;10452822;28;2842;-51
2023/12/15 16:09:42;;;;;;;;;;;;;;;20.90;35.10;97472.78;10450812;28;3137;-51
2023/12/15 16:14:43;;;;;;;;;;;;;;;20.90;35.08;97475.44;10454438;28;2919;-52
2023/12/15 16:19:43;;;;;;;;;;;;;;;20.91;35.00;97484.94;10452376;28;2797;-51
2023/12/15 16:24:44;;;;;;;;;;;;;;;20.92;34.66;97488.38;10453402;28;2791;-54
2023/12/15 16:29:44;;;;;;;;;;;;;;;20.91;35.27;97497.31;10459509;28;2845;-53
2023/12/15 16:34:44;;;;;;;;;;;;;;;20.92;34.73;97491.81;10455877;28;2905;-54
2023/12/15 16:39:48;;;;;;;;;;;;;;;20.90;35.22;97493.88;10458064;28;2929;-52
2023/12/15 16:44:48;;;;;;;;;;;;;;;20.91;35.06;97498.13;10458018;28;4882;-52
2023/12/15 16:49:50;;;;;;;;;;;;;;;20.94;35.60;97513.47;10465839;28;2802;-50
2023/12/15 16:54:50;;;;;;;;;;;;;;;20.92;35.13;97507.63;10463205;28;2826;-51
2023/12/15 16:59:50;;;;;;;;;;;;;;;20.94;35.56;97502.91;10459006;28;2847;-50
2023/12/15 17:04:51;;;;;;;;;;;;;;;20.95;35.40;97495.81;10459759;28;2903;-48
2023/12/15 17:09:51;;;;;;;;;;;;;;;20.93;35.36;97503.97;10453997;28;2846;-51
2023/12/15 17:14:51;;;;;;;;;;;;;;;20.96;34.75;97498.22;10455586;28;2938;-51
2023/12/15 17:19:52;;;;;;;;;;;;;;;21.01;35.42;97497.53;10474708;28;2255;-51
2023/12/15 17:24:52;;;;;;;;;;;;;;;21.04;35.59;97510.28;10475807;28;2748;-52
2023/12/15 17:29:52;;;;;;;;;;;;;;;21.08;34.05;97509.56;10480309;28;1936;-51
2023/12/15 17:34:53;;;;;;;;;;;;;;;21.12;33.97;97517.00;10486344;28;1465;-50
2023/12/15 17:39:53;;;;;;;;;;;;;;;21.14;34.04;97514.94;10480444;28;1894;-48
2023/12/15 17:44:53;;;;;;;;;;;;;;;21.22;33.78;97522.47;10475514;28;2036;-51
2023/12/15 17:49:53;;;;;;;;;;;;;;;21.22;33.70;97525.94;10483193;28;1447;-51
2023/12/15 17:54:54;;;;;;;;;;;;;;;21.28;33.82;97526.81;10478692;28;2916;-51
2023/12/15 17:59:54;;;;;;;;;;;;;;;21.26;33.93;97515.69;10474795;28;1993;-51
2023/12/15 18:04:54;;;;;;;;;;;;;;;21.26;33.78;97515.69;10471117;28;1422;-48
2023/12/15 18:09:55;;;;;;;;;;;;;;;21.24;33.97;97525.69;10508002;28;2021;-52
2023/12/15 18:14:55;;;;;;;;;;;;;;;21.25;33.55;97535.19;10478453;28;1340;-51
2023/12/15 18:19:55;;;;;;;;;;;;;;;21.29;33.50;97552.16;10475242;28;2545;-54
2023/12/15 18:24:55;;;;;;;;;;;;;;;21.30;33.52;97541.38;10480867;28;1877;-51
2023/12/15 18:29:59;;;;;;;;;;;;;;;21.25;33.55;97543.09;10474035;28;1769;-51
2023/12/15 18:34:59;;;;;;;;;;;;;;;21.29;33.43;97554.81;10479144;28;1843;-51
2023/12/15 18:40:00;;;;;;;;;;;;;;;21.30;33.33;97559.84;10478272;28;1898;-54
2023/12/15 18:45:00;;;;;;;;;;;;;;;21.25;33.43;97559.72;10479065;28;5056;-54
2023/12/15 18:50:01;;;;;;;;;;;;;;;21.31;33.69;97574.63;10483348;28;1530;-52
2023/12/15 18:55:01;;;;;;;;;;;;;;;21.33;33.46;97579.69;10475573;28;1711;-51
2023/12/15 19:00:02;;;;;;;;;;;;;;;21.35;33.21;97574.97;10476315;28;1989;-52
2023/12/15 19:05:03;;;;;;;;;;;;;;;21.31;33.45;97589.66;10478196;28;1496;-51
2023/12/15 19:10:04;;;;;;;;;;;;;;;21.34;32.80;97583.91;10484629;28;1465;-52
2023/12/15 19:15:06;;;;;;;;;;;;;;;21.34;32.91;97583.91;10508977;27;1554;-51
2023/12/15 19:20:07;;;;;;;;;;;;;;;21.31;33.18;97581.75;10478900;28;2806;-51
2023/12/15 19:25:07;;;;;;;;;;;;;;;21.34;32.89;97599.72;10482453;28;2066;-47
2023/12/15 19:30:08;;;;;;;;;;;;;;;21.34;32.90;97610.28;10479701;28;1789;-49
2023/12/15 19:35:08;;;;;;;;;;;;;;;21.34;32.55;97605.00;10487149;28;1447;-50
2023/12/15 19:40:09;;;;;;;;;;;;;;;21.33;33.26;97617.38;10476344;28;2583;-52
2023/12/15 19:45:09;;;;;;;;;;;;;;;21.33;33.20;97627.16;10475097;28;4869;-52
2023/12/15 19:50:09;;;;;;;;;;;;;;;21.34;33.03;97624.28;10484437;28;2104;-51
2023/12/15 19:55:11;;;;;;;;;;;;;;;21.33;32.94;97624.53;10480102;28;1975;-50
2023/12/15 20:00:11;;;;;;;;;;;;;;;21.32;32.96;97615.78;10484049;28;1517;-51
2023/12/15 20:05:14;;;;;;;;;;;;;;;21.31;33.33;97627.38;10485738;28;2252;-48
2023/12/15 20:10:15;;;;;;;;;;;;;;;21.34;33.33;97628.75;10482536;28;1525;-52
2023/12/15 20:15:16;;;;;;;;;;;;;;;21.32;32.74;97630.81;10481601;28;1905;-53
2023/12/15 20:20:16;;;;;;;;;;;;;;;21.35;32.68;97654.88;10479680;28;1610;-51
2023/12/15 20:25:16;;;;;;;;;;;;;;;21.32;32.80;97633.47;10481045;28;1606;-51
2023/12/15 20:30:17;;;;;;;;;;;;;;;21.32;33.05;97630.81;10479624;28;1478;-55
2023/12/15 20:35:17;;;;;;;;;;;;;;;21.33;32.79;97629.78;10479339;28;1950;-52
2023/12/15 20:40:17;;;;;;;;;;;;;;;21.34;32.81;97632.19;10480312;28;1966;-54
2023/12/15 20:45:18;;;;;;;;;;;;;;;21.37;32.76;97625.66;10479902;28;4893;-51
2023/12/15 20:50:19;;;;;;;;;;;;;;;21.41;32.21;97626.78;10496384;28;1582;-53
2023/12/15 20:55:19;;;;;;;;;;;;;;;21.38;32.82;97643.06;10484433;28;1973;-54
2023/12/15 21:00:19;;;;;;;;;;;;;;;21.42;32.26;97660.03;10482724;28;1430;-52
2023/12/15 21:05:20;;;;;;;;;;;;;;;21.42;32.45;97670.59;10481393;28;2315;-53
2023/12/15 21:10:20;;;;;;;;;;;;;;;21.34;32.12;97674.41;10484142;28;1503;-52
2023/12/15 21:15:20;;;;;;;;;;;;;;;21.37;32.67;97683.69;10477587;28;1914;-51
2023/12/15 21:20:21;;;;;;;;;;;;;;;21.23;33.36;97684.94;10487455;28;1466;-52
2023/12/15 21:25:21;;;;;;;;;;;;;;;21.19;33.87;97686.44;10477888;28;1439;-50
2023/12/15 21:30:23;;;;;;;;;;;;;;;21.18;33.79;97687.50;10478388;28;1518;-51
2023/12/15 21:35:24;;;;;;;;;;;;;;;21.14;34.22;97687.16;10484762;28;1973;-50
2023/12/15 21:40:24;;;;;;;;;;;;;;;21.20;33.23;97682.78;10480117;28;1371;-50
2023/12/15 21:45:25;;;;;;;;;;;;;;;21.14;33.31;97676.63;10479513;28;4913;-51
2023/12/15 21:50:26;;;;;;;;;;;;;;;21.06;34.00;97672.47;10482686;28;1466;-50
2023/12/15 21:55:26;;;;;;;;;;;;;;;21.06;34.00;97666.41;10482889;28;1984;-51
2023/12/15 22:00:26;;;;;;;;;;;;;;;21.07;33.37;97699.66;10483848;28;2382;-52
2023/12/15 22:05:26;;;;;;;;;;;;;;;20.99;33.95;97695.50;10481605;28;1585;-52
2023/12/15 22:10:32;;;;;;;;;;;;;;;20.93;34.14;97683.25;10477554;28;1509;-49
2023/12/15 22:15:32;;;;;;;;;;;;;;;20.89;34.23;97697.09;10459122;28;2940;-50
2023/12/15 22:20:35;;;;;;;;;;;;;;;20.92;33.69;97715.88;10458624;28;2881;-47
2023/12/15 22:25:35;;;;;;;;;;;;;;;20.85;33.66;97723.13;10453056;28;3227;-52
2023/12/15 22:30:37;;;;;;;;;;;;;;;20.85;34.28;97712.56;10458998;28;2823;-48
2023/12/15 22:35:38;;;;;;;;;;;;;;;20.82;34.34;97704.31;10468318;28;2766;-50
2023/12/15 22:40:39;;;;;;;;;;;;;;;20.83;34.31;97709.38;10459706;28;2853;-51
2023/12/15 22:45:40;;;;;;;;;;;;;;;20.77;34.30;97704.19;10468394;28;4803;-51
2023/12/15 22:50:41;;;;;;;;;;;;;;;20.70;34.18;97708.75;10459519;28;3139;-52
2023/12/15 22:55:41;;;;;;;;;;;;;;;20.72;34.75;97704.06;10459895;28;2975;-54
2023/12/15 23:00:41;;;;;;;;;;;;;;;20.73;34.10;97714.38;10492197;28;2983;-50
2023/12/15 23:05:43;;;;;;;;;;;;;;;20.70;34.46;97704.31;10466948;28;2988;-53
2023/12/15 23:10:44;;;;;;;;;;;;;;;20.72;34.26;97702.25;10463708;28;2873;-51
2023/12/15 23:15:44;;;;;;;;;;;;;;;20.70;34.33;97706.13;10454514;28;2875;-48
2023/12/15 23:20:44;;;;;;;;;;;;;;;20.68;33.85;97709.00;10459500;28;2824;-45
2023/12/15 23:25:44;;;;;;;;;;;;;;;20.63;33.50;97722.03;10469644;28;2817;-51
2023/12/15 23:30:45;;;;;;;;;;;;;;;20.58;33.40;97726.38;10461610;28;3125;-50
2023/12/15 23:35:45;;;;;;;;;;;;;;;20.52;33.68;97736.00;10460005;28;2818;-51
2023/12/15 23:40:45;;;;;;;;;;;;;;;20.48;33.36;97739.31;10462110;28;2795;-50
2023/12/15 23:45:46;;;;;;;;;;;;;;;20.39;33.62;97728.28;10464772;28;4992;-50
2023/12/15 23:50:46;;;;;;;;;;;;;;;20.34;33.67;97720.25;10469883;28;2920;-52
2023/12/15 23:55:47;;;;;;;;;;;;;;;20.28;33.67;97718.50;10460971;28;2970;-51
